Time;durP1;ratioP1;P1;durP2;ratioP2;P2;SDS_P1;SDS_P2;PMS_P1;PMS_P2;Temp;Humidity;BMP_temperature;BMP_pressure;BME280_temperature;BME280_humidity;BME280_pressure;Samples;Min_cycle;Max_cycle;Signal;HPM_P1;HPM_P2
2022/02/20 00:01:22;;;;;;;;;12.25;12.25;;;;;6.57;91.37;101145.44;5138248;27;11394;-82
2022/02/20 00:04:17;;;;;;;;;10.00;9.25;;;;;6.53;90.98;101147.97;5136912;27;11457;-82
2022/02/20 00:07:13;;;;;;;;;17.50;13.00;;;;;6.47;91.37;101142.81;5123301;27;12332;-81
2022/02/20 00:10:09;;;;;;;;;11.00;9.75;;;;;6.40;91.62;101140.41;5136718;27;12218;-82
2022/02/20 00:13:05;;;;;;;;;10.50;10.50;;;;;6.47;91.32;101134.56;5136634;27;11471;-82
2022/02/20 00:16:01;;;;;;;;;10.00;10.00;;;;;6.45;91.19;101143.09;5136275;27;11506;-82
2022/02/20 00:18:56;;;;;;;;;7.00;7.00;;;;;6.36;91.61;101137.44;5136306;27;11464;-82
2022/02/20 00:21:52;;;;;;;;;5.75;5.75;;;;;6.31;91.79;101126.50;5142347;27;11424;-83
2022/02/20 00:24:47;;;;;;;;;6.75;6.75;;;;;6.35;91.17;101130.28;5137738;27;11370;-82
2022/02/20 00:27:43;;;;;;;;;6.50;6.50;;;;;6.27;91.69;101124.59;5143314;27;11515;-81
2022/02/20 00:30:39;;;;;;;;;5.75;5.25;;;;;6.25;91.95;101115.84;5157008;27;11369;-81
2022/02/20 00:33:34;;;;;;;;;7.00;7.00;;;;;6.15;92.23;101132.44;5146093;27;11512;-82
2022/02/20 00:36:30;;;;;;;;;0.00;0.00;;;;;6.20;92.37;101122.19;5156647;27;11380;-81
2022/02/20 00:39:28;;;;;;;;;7.00;7.00;;;;;6.13;92.29;101128.06;5156377;27;11355;-82
2022/02/20 00:42:24;;;;;;;;;5.50;5.50;;;;;5.98;92.81;101150.19;5132504;27;11417;-82
2022/02/20 00:45:20;;;;;;;;;5.00;5.00;;;;;5.95;92.62;101138.94;5122483;27;11472;-82
2022/02/20 00:48:19;;;;;;;;;6.00;6.00;;;;;6.04;91.94;101137.19;5122230;27;11405;-81
2022/02/20 00:51:14;;;;;;;;;2.75;2.75;;;;;5.94;92.43;101131.81;5135839;27;11465;-80
2022/02/20 00:54:10;;;;;;;;;4.50;4.50;;;;;6.09;91.44;101134.41;5156469;27;11403;-80
2022/02/20 00:57:06;;;;;;;;;9.25;8.50;;;;;6.03;92.10;101136.38;5142740;27;11344;-81
2022/02/20 01:00:05;;;;;;;;;5.25;5.25;;;;;6.01;92.44;101133.13;5142693;27;11517;-80
2022/02/20 01:03:01;;;;;;;;;6.00;6.00;;;;;6.08;91.33;101130.84;5137341;27;12223;-80
2022/02/20 01:05:57;;;;;;;;;7.00;7.00;;;;;5.97;92.41;101132.03;5135393;27;11443;-81
2022/02/20 01:08:53;;;;;;;;;5.25;5.25;;;;;5.99;92.24;101145.50;5120371;27;11427;-82
2022/02/20 01:11:49;;;;;;;;;6.00;6.00;;;;;6.04;92.30;101138.03;5136826;27;12143;-81
2022/02/20 01:14:45;;;;;;;;;9.00;9.00;;;;;6.08;91.95;101144.59;5121358;27;11475;-81
2022/02/20 01:17:41;;;;;;;;;6.50;6.50;;;;;5.97;92.52;101142.22;5135288;27;11525;-81
2022/02/20 01:20:37;;;;;;;;;6.00;6.00;;;;;6.09;91.97;101145.41;5134932;27;11448;-81
2022/02/20 01:23:32;;;;;;;;;10.25;10.25;;;;;6.06;92.01;101149.56;5122120;27;11375;-81
2022/02/20 01:26:28;;;;;;;;;6.75;6.75;;;;;6.06;91.55;101146.81;5135813;27;11557;-81
2022/02/20 01:29:24;;;;;;;;;8.75;5.50;;;;;6.06;92.02;101146.81;5146396;27;11504;-81
2022/02/20 01:32:19;;;;;;;;;5.00;5.00;;;;;6.06;92.27;101141.31;5140935;27;11441;-81
2022/02/20 01:35:16;;;;;;;;;10.00;10.00;;;;;5.97;92.14;101139.47;5135039;27;11482;-80
2022/02/20 01:38:16;;;;;;;;;10.50;10.50;;;;;6.03;92.20;101139.13;5134657;27;11495;-80
2022/02/20 01:41:16;;;;;;;;;2.50;2.50;;;;;5.89;92.79;101143.63;5128359;27;11475;-80
2022/02/20 01:43:44;;;;;;;;;6.00;6.00;;;;;5.91;92.72;101143.38;5156549;27;11499;-80
2022/02/20 01:46:44;;;;;;;;;9.75;9.75;;;;;5.86;93.88;101150.53;5141670;27;11439;-81
2022/02/20 01:49:40;;;;;;;;;9.50;9.25;;;;;5.94;93.23;101151.03;5141470;27;11502;-81
2022/02/20 01:52:36;;;;;;;;;7.25;6.75;;;;;5.97;92.90;101145.78;5135047;27;11457;-81
2022/02/20 01:55:32;;;;;;;;;6.25;6.25;;;;;5.92;93.07;101150.50;5120714;27;11506;-81
2022/02/20 01:58:28;;;;;;;;;8.50;8.50;;;;;5.93;93.02;101158.47;5120730;27;11424;-81
2022/02/20 02:01:23;;;;;;;;;6.25;6.25;;;;;5.95;92.77;101160.91;5135185;27;11435;-81
2022/02/20 02:04:20;;;;;;;;;4.00;4.00;;;;;6.01;92.36;101165.25;5134371;27;11425;-80
2022/02/20 02:07:15;;;;;;;;;10.75;8.50;;;;;5.95;92.58;101169.16;5134300;27;11399;-80
2022/02/20 02:10:11;;;;;;;;;12.50;12.50;;;;;5.88;92.90;101161.22;5144735;27;11419;-79
2022/02/20 02:13:07;;;;;;;;;10.25;10.25;;;;;5.95;92.40;101158.97;5141070;27;11410;-79
2022/02/20 02:16:03;;;;;;;;;13.75;12.75;;;;;5.85;92.66;101165.34;5141058;27;11467;-80
2022/02/20 02:18:59;;;;;;;;;9.00;9.00;;;;;5.83;92.54;101158.53;5140943;27;11530;-81
2022/02/20 02:21:59;;;;;;;;;9.75;9.75;;;;;5.71;92.63;101174.53;5138099;27;11507;-81
2022/02/20 02:24:56;;;;;;;;;9.00;9.00;;;;;5.80;93.48;101181.84;5134140;27;11456;-80
2022/02/20 02:27:52;;;;;;;;;7.50;7.50;;;;;5.74;93.59;101187.66;5133823;27;11516;-79
2022/02/20 02:30:49;;;;;;;;;12.00;10.75;;;;;5.79;93.34;101196.69;5146749;27;11412;-80
2022/02/20 02:33:50;;;;;;;;;9.75;9.75;;;;;5.82;93.24;101204.34;5124853;27;11455;-80
2022/02/20 02:36:52;;;;;;;;;4.75;4.75;;;;;5.67;94.03;101204.47;5133854;27;11420;-80
2022/02/20 02:39:47;;;;;;;;;5.25;4.00;;;;;5.71;93.83;101204.72;5141441;27;11440;-81
2022/02/20 02:42:43;;;;;;;;;7.50;7.50;;;;;5.81;93.59;101196.41;5136174;27;12379;-80
2022/02/20 02:45:39;;;;;;;;;7.50;6.25;;;;;5.76;92.98;101202.75;5133663;27;11432;-81
2022/02/20 02:48:44;;;;;;;;;7.50;7.50;;;;;5.70;93.99;101195.66;5133666;27;12267;-82
2022/02/20 02:51:40;;;;;;;;;9.00;9.00;;;;;5.67;94.84;101189.91;5142595;27;11423;-80
2022/02/20 02:54:35;;;;;;;;;7.50;7.50;;;;;5.73;94.43;101192.34;5154489;27;12236;-80
2022/02/20 02:57:31;;;;;;;;;8.25;7.25;;;;;5.75;94.82;101194.78;5140246;27;11521;-80
2022/02/20 03:00:31;;;;;;;;;11.75;11.75;;;;;5.78;94.50;101194.25;5151266;27;11461;-79
2022/02/20 03:03:26;;;;;;;;;11.00;10.25;;;;;5.81;94.06;101194.47;5133321;27;11557;-80
2022/02/20 03:06:23;;;;;;;;;12.50;12.50;;;;;5.84;93.93;101199.41;5131582;27;11497;-81
2022/02/20 03:09:18;;;;;;;;;9.00;9.00;;;;;5.80;93.56;101208.50;5133059;27;11487;-80
2022/02/20 03:12:14;;;;;;;;;8.25;8.25;;;;;5.75;93.95;101206.63;5134435;27;11532;-81
2022/02/20 03:15:10;;;;;;;;;8.50;8.50;;;;;5.75;94.36;101198.38;5133169;27;11482;-81
2022/02/20 03:18:06;;;;;;;;;8.75;8.75;;;;;5.75;93.97;101195.66;5119375;27;11505;-80
2022/02/20 03:21:06;;;;;;;;;14.50;14.50;;;;;5.72;94.32;101193.44;5138786;27;11453;-81
2022/02/20 03:24:02;;;;;;;;;10.00;10.00;;;;;5.73;93.92;101195.09;5153722;27;11539;-81
2022/02/20 03:26:57;;;;;;;;;9.50;9.50;;;;;5.74;94.25;101202.22;5153807;27;11535;-81
2022/02/20 03:29:53;;;;;;;;;11.50;11.50;;;;;5.67;94.05;101193.47;5120405;27;11449;-81
2022/02/20 03:32:48;;;;;;;;;13.25;13.25;;;;;5.74;93.76;101196.72;5122563;27;11486;-81
2022/02/20 03:35:44;;;;;;;;;15.00;14.25;;;;;5.62;93.83;101188.03;5137214;27;11568;-81
2022/02/20 03:38:40;;;;;;;;;14.50;14.00;;;;;5.59;94.11;101194.91;5123402;27;11494;-80
2022/02/20 03:41:36;;;;;;;;;13.25;13.00;;;;;5.56;94.08;101206.47;5147685;27;11451;-81
2022/02/20 03:44:32;;;;;;;;;14.75;14.00;;;;;5.61;94.23;101205.63;5158491;27;11476;-80
2022/02/20 03:47:28;;;;;;;;;18.00;15.75;;;;;5.57;94.34;101210.84;5157624;27;11448;-80
2022/02/20 03:50:23;;;;;;;;;14.00;14.00;;;;;5.63;93.93;101208.06;5157762;27;11594;-80
2022/02/20 03:53:19;;;;;;;;;15.50;15.50;;;;;5.58;94.05;101207.00;5137117;27;11536;-80
2022/02/20 03:56:00;;;;;;;;;15.00;15.00;;;;;5.59;94.36;101221.53;5121943;27;11589;-81
2022/02/20 03:58:56;;;;;;;;;17.50;17.50;;;;;5.51;94.29;101220.19;5136705;27;11525;-79
2022/02/20 04:01:51;;;;;;;;;16.25;15.25;;;;;5.50;94.41;101217.75;5140034;27;11478;-80
2022/02/20 04:04:47;;;;;;;;;15.75;14.75;;;;;5.50;94.22;101215.81;5136770;27;11591;-80
2022/02/20 04:07:43;;;;;;;;;9.75;9.75;;;;;5.49;94.17;101210.63;5136625;27;11484;-81
2022/02/20 04:10:39;;;;;;;;;4.75;3.50;;;;;5.39;94.47;101217.00;5123231;27;11468;-81
2022/02/20 04:13:35;;;;;;;;;18.75;18.75;;;;;5.33;94.43;101214.56;5137088;27;12319;-81
2022/02/20 04:16:30;;;;;;;;;19.00;19.00;;;;;5.39;94.05;101221.69;5137453;27;11518;-81
2022/02/20 04:19:26;;;;;;;;;21.75;20.75;;;;;5.27;95.01;101214.59;5136599;27;11504;-81
2022/02/20 04:22:21;;;;;;;;;17.75;17.75;;;;;5.20;94.99;101216.81;5145418;27;12261;-81
2022/02/20 04:25:17;;;;;;;;;18.25;16.75;;;;;5.22;94.50;101217.38;5157491;27;11573;-81
2022/02/20 04:28:13;;;;;;;;;18.75;18.50;;;;;5.28;93.76;101224.44;5156655;27;11490;-81
2022/02/20 04:31:09;;;;;;;;;17.25;16.25;;;;;5.26;93.10;101226.66;5157065;27;11496;-81
2022/02/20 04:34:04;;;;;;;;;20.25;18.25;;;;;5.28;93.36;101229.13;5136286;27;12301;-82
2022/02/20 04:37:00;;;;;;;;;11.00;11.00;;;;;5.15;93.46;101236.06;5136376;27;12370;-81
2022/02/20 04:39:56;;;;;;;;;19.50;18.00;;;;;5.11;93.89;101248.66;5136368;27;11615;-81
2022/02/20 04:42:51;;;;;;;;;13.75;13.50;;;;;4.97;93.93;101255.84;5132705;27;11491;-82
2022/02/20 04:45:47;;;;;;;;;19.25;19.25;;;;;5.01;93.80;101254.22;5142745;27;12242;-81
2022/02/20 04:48:43;;;;;;;;;17.25;17.25;;;;;4.95;93.62;101255.31;5142657;27;11497;-81
2022/02/20 04:51:38;;;;;;;;;18.00;18.00;;;;;4.87;93.85;101266.84;5156486;27;12213;-80
2022/02/20 04:54:34;;;;;;;;;16.00;16.00;;;;;4.80;94.11;101269.06;5135802;27;11678;-80
2022/02/20 04:57:34;;;;;;;;;20.75;19.50;;;;;4.85;93.83;101271.81;5135347;27;11459;-80
2022/02/20 05:00:30;;;;;;;;;23.75;19.75;;;;;4.77;93.55;101275.13;5135625;27;11516;-80
2022/02/20 05:03:26;;;;;;;;;16.25;15.75;;;;;4.66;94.03;101277.84;5146560;27;11511;-80
2022/02/20 05:06:27;;;;;;;;;18.75;18.50;;;;;4.59;94.44;101281.97;5142532;27;12245;-80
2022/02/20 05:09:23;;;;;;;;;18.25;18.25;;;;;4.56;94.26;101294.31;5140016;27;11519;-80
2022/02/20 05:12:18;;;;;;;;;20.00;20.00;;;;;4.57;94.42;101285.00;5138567;27;11553;-80
2022/02/20 05:15:14;;;;;;;;;17.00;16.50;;;;;4.55;94.67;101281.72;5140314;27;11506;-80
2022/02/20 05:18:10;;;;;;;;;16.00;16.00;;;;;4.50;95.06;101287.19;5144786;27;11522;-80
2022/02/20 05:21:07;;;;;;;;;19.25;19.25;;;;;4.62;94.78;101289.66;5134833;27;11492;-80
2022/02/20 05:24:03;;;;;;;;;19.00;18.75;;;;;4.67;94.45;101289.63;5137333;27;11475;-80
2022/02/20 05:26:58;;;;;;;;;13.00;13.00;;;;;4.77;94.01;101292.38;5141590;27;11462;-80
2022/02/20 05:29:54;;;;;;;;;23.00;21.00;;;;;4.87;93.12;101297.81;5143289;27;11492;-80
2022/02/20 05:32:50;;;;;;;;;17.25;17.25;;;;;4.96;92.10;101306.28;5139579;27;11476;-80
2022/02/20 05:35:46;;;;;;;;;15.75;15.75;;;;;5.12;91.08;101307.88;5138163;27;11465;-80
2022/02/20 05:38:41;;;;;;;;;18.00;16.75;;;;;5.19;90.12;101318.56;5135537;27;11464;-80
2022/02/20 05:41:37;;;;;;;;;22.00;22.00;;;;;5.25;89.05;101317.47;5121801;27;11538;-79
2022/02/20 05:44:32;;;;;;;;;21.50;21.50;;;;;5.34;88.08;101314.94;5134405;27;11585;-80
2022/02/20 05:47:28;;;;;;;;;17.25;17.25;;;;;5.33;87.24;101319.63;5133387;27;11459;-80
2022/02/20 05:50:24;;;;;;;;;17.75;17.75;;;;;5.38;86.76;101318.78;5143708;27;11498;-80
2022/02/20 05:53:19;;;;;;;;;17.75;17.75;;;;;5.45;86.65;101319.31;5127867;27;12249;-81
2022/02/20 05:56:17;;;;;;;;;18.00;18.00;;;;;5.57;86.44;101328.00;5154227;27;11559;-81
2022/02/20 05:59:13;;;;;;;;;16.75;14.75;;;;;5.70;85.69;101316.44;5150148;27;11517;-80
2022/02/20 06:02:09;;;;;;;;;13.75;13.75;;;;;5.91;84.29;101319.09;5142515;27;11504;-79
2022/02/20 06:05:05;;;;;;;;;17.75;17.00;;;;;6.00;83.51;101328.38;5134605;27;11519;-82
2022/02/20 06:08:01;;;;;;;;;20.25;16.25;;;;;6.13;82.77;101327.69;5138409;27;12324;-83
2022/02/20 06:10:57;;;;;;;;;11.75;11.75;;;;;6.32;80.06;101319.63;5132657;27;11518;-83
2022/02/20 06:13:53;;;;;;;;;17.00;16.50;;;;;6.46;79.70;101325.28;5140346;27;11488;-83
2022/02/20 06:16:48;;;;;;;;;22.75;22.75;;;;;6.64;78.30;101328.13;5139600;27;12260;-81
2022/02/20 06:19:46;;;;;;;;;42.25;37.75;;;;;6.68;76.08;101331.13;5130516;27;11502;-82
2022/02/20 06:22:41;;;;;;;;;23.25;21.25;;;;;6.88;75.79;101328.16;5143179;27;12249;-82
2022/02/20 06:25:37;;;;;;;;;19.50;19.00;;;;;7.02;74.37;101339.28;5142571;27;12218;-82
2022/02/20 06:28:32;;;;;;;;;17.50;17.50;;;;;7.17;72.85;101341.88;5122151;27;11629;-80
2022/02/20 06:31:28;;;;;;;;;14.00;13.75;;;;;7.40;70.33;101353.19;5140390;27;11421;-83
2022/02/20 06:34:24;;;;;;;;;9.25;9.25;;;;;7.55;70.88;101354.94;5108363;28;11440;-80
